LPFL/FLW METAR and TAF weather

Enter ICAO airport designator
Station Type Date Time Source
LPFL METAR 2021/02/28 18:00 UTC NOAA

LPFL 281800Z 26008KT 220V340 9999 FEW026 13/05 Q1014


Station Type Date Time Source
LPFL Decoded METAR 2021/02/28 18:00 UTC NOAA

Flores Acores , Portugal (LPFL) 39-27N 031-08W 29M
Feb 28, 2021 - 01:00 PM EST / 2021.02.28 1800 UTC
Wind: from the W (260 degrees) at 9 MPH (8 KT) (direction variable):0
Visibility: greater than 7 mile(s):0
Sky conditions: mostly clear
Temperature: 55 F (13 C)
Dew Point: 41 F (5 C)
Relative Humidity: 58%
Pressure (altimeter): 29.94 in. Hg (1014 hPa)
ob: LPFL 281800Z 26008KT 220V340 9999 FEW026 13/05 Q1014
cycle: 18

Station Type Date Time Source
LPFL TAF UTC NOAA

Error!

Example: see airport list